KSBN/SBN METAR and TAF weather

Enter ICAO airport designator
Station Type Date Time Source
KSBN METAR 2020/04/05 15:54 UTC NOAA

KSBN 051554Z 11006KT 10SM BKN120 08/00 A3019 RMK AO2 SLP230 T00780000


Station Type Date Time Source
KSBN Decoded METAR 2020/04/05 15:54 UTC NOAA

SOUTH BEND REGIONAL AIRPORT, IN, United States (KSBN) 41-42N 086-19W 237M
Apr 05, 2020 - 11:54 AM EDT / 2020.04.05 1554 UTC
Wind: from the ESE (110 degrees) at 7 MPH (6 KT):0
Visibility: 10 mile(s):0
Sky conditions: mostly cloudy
Temperature: 46.0 F (7.8 C)
Dew Point: 32.0 F (0.0 C)
Relative Humidity: 57%
Pressure (altimeter): 30.19 in. Hg (1022 hPa)
ob: KSBN 051554Z 11006KT 10SM BKN120 08/00 A3019 RMK AO2 SLP230 T00780000
cycle: 16

Station Type Date Time Source
KSBN TAF 2020/04/05 12:33 UTC NOAA

TAF KSBN 051130Z 0512/0612 01004KT P6SM BKN012
TEMPO 0512/0514 SCT012
FM051400 03005KT P6SM SCT120
FM060000 35004KT P6SM FEW250

Example: see airport list